Time;durP1;ratioP1;P1;durP2;ratioP2;P2;SDS_P1;SDS_P2;PMS_P1;PMS_P2;Temp;Humidity;BMP_temperature;BMP_pressure;BME280_temperature;BME280_humidity;BME280_pressure;Samples;Min_cycle;Max_cycle;Signal;HPM_P1;HPM_P2
2021/12/11 00:06:46;;;;;;;;;;;;;;;;;;2485677;23;1278;-88
2021/12/11 00:08:11;;;;;;;;;;;;;;;;;;;;;
2021/12/11 00:11:33;;;;;;;;;;;;;;;;;;2532692;23;688;-87
2021/12/11 00:21:14;;;;;;;;;;;;;;;;;;;;;
2021/12/11 00:31:57;;;;;;;;;;;;;;;;;;2495696;23;1341;-86
2021/12/11 00:32:59;;;;;;;;;;;;;;;;;;2537327;23;1251;-85
2021/12/11 00:34:01;;;;;;;;;;;;;;;;;;2547442;23;856;-85
2021/12/11 00:35:05;;;;;;;;;;;;;;;;;;2560584;23;820;-86
2021/12/11 00:36:10;;;;;;;;;;;;;;;;;;2547394;23;1340;-85
2021/12/11 00:37:12;;;;;;;;;;;;;;;;;;2548252;23;1171;-85
2021/12/11 00:38:15;;;;;;;;;;;;;;;;;;2559759;23;1283;-85
2021/12/11 00:39:18;;;;;;;;;;;;;;;;;;2547554;23;1276;-85
2021/12/11 00:40:22;;;;;;;;;;;;;;;;;;2535237;23;1308;-86
2021/12/11 00:41:25;;;;;;;;;;;;;;;;;;2535180;23;1070;-85
2021/12/11 00:42:32;;;;;;;;;;;;;;;;;;2535420;23;1901;-85
2021/12/11 00:43:35;;;;;;;;;;;;;;;;;;2549351;23;899;-85
2021/12/11 00:44:38;;;;;;;;;;;;;;;;;;2547551;23;1118;-86
2021/12/11 00:45:41;;;;;;;;;;;;;;;;;;2535996;23;1289;-86
2021/12/11 00:46:41;;;;;;;;;;;;;;;;;;2535135;23;1163;-86
2021/12/11 00:47:44;;;;;;;;;;;;;;;;;;2535456;23;1285;-84
2021/12/11 00:48:45;;;;;;;;;;;;;;;;;;2556260;23;1287;-85
2021/12/11 00:49:53;;;;;;;;;;;;;;;;;;2547732;23;1333;-86
2021/12/11 00:50:56;;;;;;;;;;;;;;;;;;2560129;23;1305;-85
2021/12/11 00:52:00;;;;;;;;;;;;;;;;;;2560100;23;1306;-86
2021/12/11 00:53:07;;;;;;;;;;;;;;;;;;2572630;23;997;-87
2021/12/11 00:54:08;;;;;;;;;;;;;;;;;;2572428;23;1350;-87
2021/12/11 00:55:18;;;;;;;;;;;;;;;;;;2559920;23;1333;-86
2021/12/11 00:56:20;;;;;;;;;;;;;;;;;;2561613;23;1262;-85
2021/12/11 00:57:22;;;;;;;;;;;;;;;;;;2559702;23;1351;-86
2021/12/11 00:58:24;;;;;;;;;;;;;;;;;;2559940;23;1405;-85
2021/12/11 00:59:25;;;;;;;;;;;;;;;;;;2560010;23;1334;-86
2021/12/11 01:00:26;;;;;;;;;;;;;;;;;;2547524;23;1303;-86
2021/12/11 01:01:29;;;;;;;;;;;;;;;;;;2559606;23;1558;-86
2021/12/11 01:02:30;;;;;;;;;;;;;;;;;;2571752;23;1900;-86
2021/12/11 01:03:40;;;;;;;;;;;;;;;;;;2572519;23;1298;-87
2021/12/11 01:04:42;;;;;;;;;;;;;;;;;;2559730;23;1263;-86
2021/12/11 01:05:45;;;;;;;;;;;;;;;;;;2547772;23;1287;-85
2021/12/11 01:06:49;;;;;;;;;;;;;;;;;;2560132;23;1077;-86
2021/12/11 01:07:53;;;;;;;;;;;;;;;;;;2560052;23;1218;-85
2021/12/11 01:08:58;;;;;;;;;;;;;;;;;;2548171;23;1247;-83
2021/12/11 01:10:02;;;;;;;;;;;;;;;;;;2548184;23;1266;-85
2021/12/11 01:11:11;;;;;;;;;;;;;;;;;;2560374;23;1180;-85
2021/12/11 01:12:15;;;;;;;;;;;;;;;;;;2559545;23;1318;-83
2021/12/11 01:13:20;;;;;;;;;;;;;;;;;;2548329;23;1167;-85
2021/12/11 01:14:27;;;;;;;;;;;;;;;;;;2560591;23;864;-85
2021/12/11 01:15:31;;;;;;;;;;;;;;;;;;2559791;23;1116;-85
2021/12/11 01:16:33;;;;;;;;;;;;;;;;;;2560456;23;815;-85
2021/12/11 01:17:42;;;;;;;;;;;;;;;;;;2572792;23;732;-85
2021/12/11 01:18:45;;;;;;;;;;;;;;;;;;2559808;23;1179;-85
2021/12/11 01:19:47;;;;;;;;;;;;;;;;;;2560318;23;1176;-86
2021/12/11 01:20:56;;;;;;;;;;;;;;;;;;2559679;23;1395;-85
2021/12/11 01:22:00;;;;;;;;;;;;;;;;;;2548684;23;1220;-85
2021/12/11 01:23:04;;;;;;;;;;;;;;;;;;2547827;23;2000;-89
2021/12/11 01:24:14;;;;;;;;;;;;;;;;;;2559886;23;1246;-85
2021/12/11 01:25:16;;;;;;;;;;;;;;;;;;2559659;23;1274;-84
2021/12/11 01:26:20;;;;;;;;;;;;;;;;;;2547380;23;1227;-85
2021/12/11 01:27:24;;;;;;;;;;;;;;;;;;2559951;23;1204;-85
2021/12/11 01:28:25;;;;;;;;;;;;;;;;;;2559648;23;1185;-84
2021/12/11 01:29:27;;;;;;;;;;;;;;;;;;2559863;23;1150;-86
2021/12/11 01:30:30;;;;;;;;;;;;;;;;;;2559413;23;1295;-85
2021/12/11 01:31:32;;;;;;;;;;;;;;;;;;2560137;23;1180;-86
2021/12/11 01:32:34;;;;;;;;;;;;;;;;;;2559256;23;1194;-86
2021/12/11 01:33:36;;;;;;;;;;;;;;;;;;2560087;23;1249;-86
2021/12/11 01:34:42;;;;;;;;;;;;;;;;;;2559721;23;1272;-86
2021/12/11 01:35:56;;;;;;;;;;;;;;;;;;2547977;23;1359;-86
2021/12/11 01:40:16;;;;;;;;;;;;;;;;;;2495517;23;1392;-87
2021/12/11 01:43:30;;;;;;;;;;;;;;;;;;2556043;23;1904;-87
2021/12/11 01:47:20;;;;;;;;;;;;;;;;;;;;;
2021/12/11 01:49:01;;;;;;;;;;;;;;;;;;;;;
2021/12/11 01:54:21;;;;;;;;;;;;;;;;;;2520676;23;1240;-87
2021/12/11 01:55:42;;;;;;;;;;;;;;;;;;2510110;23;1243;-86
2021/12/11 01:57:07;;;;;;;;;;;;;;;;;;2553472;23;1305;-87
2021/12/11 01:58:34;;;;;;;;;;;;;;;;;;2571823;23;1416;-86
2021/12/11 02:03:21;;;;;;;;;;;;;;;;;;2535125;23;1901;-87
2021/12/11 02:04:53;;;;;;;;;;;;;;;;;;2545144;23;1260;-87
2021/12/11 02:06:15;;;;;;;;;;;;;;;;;;2559109;23;1440;-86
2021/12/11 02:07:49;;;;;;;;;;;;;;;;;;2510003;23;1190;-87
2021/12/11 02:09:35;;;;;;;;;;;;;;;;;;2509582;23;1415;-87
2021/12/11 02:11:19;;;;;;;;;;;;;;;;;;2520562;23;1360;-87
2021/12/11 02:12:50;;;;;;;;;;;;;;;;;;2537403;23;1405;-87
2021/12/11 02:17:43;;;;;;;;;;;;;;;;;;2521388;23;1347;-88
2021/12/11 02:19:04;;;;;;;;;;;;;;;;;;2513700;23;1472;-87
2021/12/11 02:28:01;;;;;;;;;;;;;;;;;;2520687;23;1335;-86
2021/12/11 02:30:30;;;;;;;;;;;;;;;;;;;;;
2021/12/11 02:35:20;;;;;;;;;;;;;;;;;;2474739;23;1399;-85
2021/12/11 02:37:02;;;;;;;;;;;;;;;;;;2487353;23;1577;-86
2021/12/11 02:38:36;;;;;;;;;;;;;;;;;;2558447;23;1133;-84
2021/12/11 02:40:14;;;;;;;;;;;;;;;;;;2572526;23;708;-86
2021/12/11 02:41:54;;;;;;;;;;;;;;;;;;2558762;23;1225;-85
2021/12/11 02:43:14;;;;;;;;;;;;;;;;;;2567501;23;1943;-86
2021/12/11 02:44:44;;;;;;;;;;;;;;;;;;2558274;23;1473;-86
2021/12/11 02:46:00;;;;;;;;;;;;;;;;;;2516221;23;1275;-86
2021/12/11 02:47:50;;;;;;;;;;;;;;;;;;2518976;23;1391;-85
2021/12/11 02:51:04;;;;;;;;;;;;;;;;;;2525467;23;1298;-86
2021/12/11 02:52:13;;;;;;;;;;;;;;;;;;2558760;23;1344;-86
2021/12/11 02:55:17;;;;;;;;;;;;;;;;;;;;;
2021/12/11 02:56:27;;;;;;;;;;;;;;;;;;2571246;23;1434;-85
2021/12/11 03:01:13;;;;;;;;;;;;;;;;;;2570997;23;1239;-86
2021/12/11 03:04:17;;;;;;;;;;;;;;;;;;2580097;23;1893;-86
2021/12/11 03:05:38;;;;;;;;;;;;;;;;;;2584156;23;1203;-86
2021/12/11 03:08:30;;;;;;;;;;;;;;;;;;2576986;23;1386;-86
2021/12/11 03:10:03;;;;;;;;;;;;;;;;;;2571105;23;1338;-86
2021/12/11 03:11:38;;;;;;;;;;;;;;;;;;2577704;23;1375;-86
2021/12/11 03:15:09;;;;;;;;;;;;;;;;;;2577620;23;1408;-85
2021/12/11 03:16:55;;;;;;;;;;;;;;;;;;2571553;23;1342;-85
2021/12/11 03:18:32;;;;;;;;;;;;;;;;;;2567151;23;1418;-85
2021/12/11 03:19:39;;;;;;;;;;;;;;;;;;2577447;23;1348;-86
2021/12/11 03:22:20;;;;;;;;;;;;;;;;;;2581504;23;1433;-86
2021/12/11 03:23:38;;;;;;;;;;;;;;;;;;2582072;23;1931;-86
2021/12/11 03:24:53;;;;;;;;;;;;;;;;;;2579602;23;1386;-86
2021/12/11 03:29:35;;;;;;;;;;;;;;;;;;2501489;23;1404;-86
2021/12/11 03:33:26;;;;;;;;;;;;;;;;;;;;;
2021/12/11 03:42:36;;;;;;;;;;;;;;;;;;2476316;23;1076;-86
2021/12/11 03:44:17;;;;;;;;;;;;;;;;;;2474669;23;1910;-87
2021/12/11 03:45:39;;;;;;;;;;;;;;;;;;;;;
2021/12/11 03:47:16;;;;;;;;;;;;;;;;;;2494354;23;1102;-86
2021/12/11 03:50:29;;;;;;;;;;;;;;;;;;2522184;23;716;-85
2021/12/11 03:51:56;;;;;;;;;;;;;;;;;;2521505;23;1266;-88
2021/12/11 03:52:58;;;;;;;;;;;;;;;;;;2522095;23;1196;-85
2021/12/11 03:54:00;;;;;;;;;;;;;;;;;;2510106;23;1213;-85
2021/12/11 03:55:11;;;;;;;;;;;;;;;;;;2498235;23;1329;-86
2021/12/11 03:56:15;;;;;;;;;;;;;;;;;;2510566;23;1225;-86
2021/12/11 03:57:25;;;;;;;;;;;;;;;;;;2539840;23;1342;-85
2021/12/11 03:58:36;;;;;;;;;;;;;;;;;;2560315;23;1351;-86
2021/12/11 03:59:49;;;;;;;;;;;;;;;;;;2573669;23;1217;-86
2021/12/11 04:01:07;;;;;;;;;;;;;;;;;;2581358;23;1230;-84
2021/12/11 04:02:16;;;;;;;;;;;;;;;;;;2561820;23;1287;-85
2021/12/11 04:03:22;;;;;;;;;;;;;;;;;;2573055;23;1905;-85
2021/12/11 04:04:38;;;;;;;;;;;;;;;;;;2571125;23;1251;-84
2021/12/11 04:05:48;;;;;;;;;;;;;;;;;;2574289;23;1332;-85
2021/12/11 04:07:09;;;;;;;;;;;;;;;;;;2581863;23;1215;-86
2021/12/11 04:08:19;;;;;;;;;;;;;;;;;;2563516;23;1285;-85
2021/12/11 04:09:29;;;;;;;;;;;;;;;;;;2558476;23;1357;-85
2021/12/11 04:10:43;;;;;;;;;;;;;;;;;;2583341;23;1320;-85
2021/12/11 04:11:48;;;;;;;;;;;;;;;;;;2571515;23;1248;-87
2021/12/11 04:13:04;;;;;;;;;;;;;;;;;;2571708;23;1334;-85
2021/12/11 04:14:13;;;;;;;;;;;;;;;;;;2571415;23;1266;-86
2021/12/11 04:15:33;;;;;;;;;;;;;;;;;;2560662;23;1518;-85
2021/12/11 04:16:40;;;;;;;;;;;;;;;;;;2571045;23;1353;-86
2021/12/11 04:17:47;;;;;;;;;;;;;;;;;;2572011;23;1235;-86
2021/12/11 04:19:13;;;;;;;;;;;;;;;;;;2583878;23;1209;-86
2021/12/11 04:20:26;;;;;;;;;;;;;;;;;;2580221;23;1216;-85
2021/12/11 04:21:32;;;;;;;;;;;;;;;;;;2571427;23;1327;-86
2021/12/11 04:22:47;;;;;;;;;;;;;;;;;;2572349;23;1152;-85
2021/12/11 04:25:40;;;;;;;;;;;;;;;;;;2575412;23;1183;-86
2021/12/11 04:26:50;;;;;;;;;;;;;;;;;;2571201;23;1192;-84
2021/12/11 04:27:52;;;;;;;;;;;;;;;;;;2559357;23;1455;-84
2021/12/11 04:28:53;;;;;;;;;;;;;;;;;;2571438;23;1381;-84
2021/12/11 04:29:59;;;;;;;;;;;;;;;;;;2571276;23;1290;-88
2021/12/11 04:31:05;;;;;;;;;;;;;;;;;;2559740;23;1342;-85
2021/12/11 04:32:10;;;;;;;;;;;;;;;;;;2559440;23;1290;-85
2021/12/11 04:33:19;;;;;;;;;;;;;;;;;;2570320;23;1322;-86
2021/12/11 04:34:25;;;;;;;;;;;;;;;;;;2572106;23;1237;-85
2021/12/11 04:35:37;;;;;;;;;;;;;;;;;;2570100;23;1356;-85
2021/12/11 04:36:43;;;;;;;;;;;;;;;;;;2570297;23;1018;-85
2021/12/11 04:38:00;;;;;;;;;;;;;;;;;;2570577;23;1274;-86
2021/12/11 04:39:04;;;;;;;;;;;;;;;;;;2572007;23;1305;-85
2021/12/11 04:40:13;;;;;;;;;;;;;;;;;;2570491;23;1363;-86
2021/12/11 04:41:33;;;;;;;;;;;;;;;;;;2569957;23;952;-86
2021/12/11 04:44:52;;;;;;;;;;;;;;;;;;2520460;23;1348;-86
2021/12/11 04:46:00;;;;;;;;;;;;;;;;;;2543486;23;1297;-86
2021/12/11 04:47:12;;;;;;;;;;;;;;;;;;2571817;23;1135;-85
2021/12/11 04:48:21;;;;;;;;;;;;;;;;;;2570354;23;1130;-85
2021/12/11 04:49:41;;;;;;;;;;;;;;;;;;2560745;23;1314;-87
2021/12/11 04:50:54;;;;;;;;;;;;;;;;;;2573207;23;1320;-86
2021/12/11 04:52:29;;;;;;;;;;;;;;;;;;2580715;23;1331;-85
2021/12/11 04:53:57;;;;;;;;;;;;;;;;;;2564717;23;1183;-85
2021/12/11 04:55:35;;;;;;;;;;;;;;;;;;2571418;23;1232;-85
2021/12/11 04:57:21;;;;;;;;;;;;;;;;;;2570974;23;1246;-85
2021/12/11 04:58:47;;;;;;;;;;;;;;;;;;2578705;23;1356;-85
2021/12/11 05:00:07;;;;;;;;;;;;;;;;;;2578584;23;1401;-85
2021/12/11 05:05:59;;;;;;;;;;;;;;;;;;2579877;23;1476;-85
2021/12/11 05:07:35;;;;;;;;;;;;;;;;;;2570811;23;1301;-88
2021/12/11 05:10:15;;;;;;;;;;;;;;;;;;2570350;23;1314;-85
2021/12/11 05:11:35;;;;;;;;;;;;;;;;;;2581476;23;791;-85
2021/12/11 05:14:05;;;;;;;;;;;;;;;;;;2567741;23;1394;-85
2021/12/11 05:15:20;;;;;;;;;;;;;;;;;;2561198;23;1230;-85
2021/12/11 05:16:26;;;;;;;;;;;;;;;;;;2562256;23;1380;-85
2021/12/11 05:17:43;;;;;;;;;;;;;;;;;;2558712;23;1236;-86
2021/12/11 05:18:46;;;;;;;;;;;;;;;;;;2573975;23;1308;-85
2021/12/11 05:20:17;;;;;;;;;;;;;;;;;;2571496;23;1203;-86
2021/12/11 05:24:45;;;;;;;;;;;;;;;;;;2557975;23;1304;-85
2021/12/11 05:25:55;;;;;;;;;;;;;;;;;;2571384;23;1316;-85
2021/12/11 05:27:21;;;;;;;;;;;;;;;;;;2556533;23;1374;-85
2021/12/11 05:30:13;;;;;;;;;;;;;;;;;;2533716;23;1385;-85
2021/12/11 05:31:26;;;;;;;;;;;;;;;;;;2578573;23;949;-85
2021/12/11 05:32:46;;;;;;;;;;;;;;;;;;2583664;23;1338;-87
2021/12/11 05:33:56;;;;;;;;;;;;;;;;;;2579262;23;823;-86
2021/12/11 05:35:23;;;;;;;;;;;;;;;;;;2581962;23;1222;-86
2021/12/11 05:36:31;;;;;;;;;;;;;;;;;;2571503;23;1383;-85
2021/12/11 05:37:43;;;;;;;;;;;;;;;;;;2572590;23;1348;-86
2021/12/11 05:38:54;;;;;;;;;;;;;;;;;;2580825;23;1373;-85
2021/12/11 05:41:35;;;;;;;;;;;;;;;;;;2564051;23;1200;-85
2021/12/11 05:42:43;;;;;;;;;;;;;;;;;;2573205;23;1296;-85
2021/12/11 05:43:57;;;;;;;;;;;;;;;;;;2577342;23;1877;-87
2021/12/11 05:45:17;;;;;;;;;;;;;;;;;;2571448;23;1082;-86
2021/12/11 05:46:25;;;;;;;;;;;;;;;;;;2583439;23;1206;-86
2021/12/11 05:47:43;;;;;;;;;;;;;;;;;;2578756;23;1279;-86
2021/12/11 05:49:00;;;;;;;;;;;;;;;;;;2564385;23;1245;-85
2021/12/11 05:51:36;;;;;;;;;;;;;;;;;;2575910;22;1554;-85
2021/12/11 05:53:08;;;;;;;;;;;;;;;;;;2526239;23;1210;-85
2021/12/11 05:54:26;;;;;;;;;;;;;;;;;;2559702;23;1259;-85
2021/12/11 05:55:57;;;;;;;;;;;;;;;;;;2571663;23;1136;-89
2021/12/11 05:58:45;;;;;;;;;;;;;;;;;;2563146;23;1329;-85
2021/12/11 06:01:32;;;;;;;;;;;;;;;;;;2566764;23;967;-85
2021/12/11 06:04:38;;;;;;;;;;;;;;;;;;2566926;23;1946;-86
2021/12/11 06:05:46;;;;;;;;;;;;;;;;;;2563107;23;1346;-85
2021/12/11 06:06:57;;;;;;;;;;;;;;;;;;2559918;23;1206;-85
2021/12/11 06:08:06;;;;;;;;;;;;;;;;;;2561435;23;1359;-85
2021/12/11 06:11:38;;;;;;;;;;;;;;;;;;2558693;23;1194;-86
2021/12/11 06:16:00;;;;;;;;;;;;;;;;;;2565581;23;1071;-85
2021/12/11 06:17:09;;;;;;;;;;;;;;;;;;2497740;23;1246;-86
2021/12/11 06:22:19;;;;;;;;;;;;;;;;;;2551704;23;1513;-87
2021/12/11 06:55:52;;;;;;;;;;;;;;;;;;2451478;24;1330;-86
2021/12/11 06:57:07;;;;;;;;;;;;;;;;;;2477636;23;1374;-87
2021/12/11 06:58:16;;;;;;;;;;;;;;;;;;2474606;24;1392;-87
2021/12/11 07:06:53;;;;;;;;;;;;;;;;;;2522016;23;1216;-89
2021/12/11 07:08:29;;;;;;;;;;;;;;;;;;2531878;23;1246;-87
2021/12/11 07:10:12;;;;;;;;;;;;;;;;;;2532208;23;1264;-86
2021/12/11 07:11:35;;;;;;;;;;;;;;;;;;2534337;23;1375;-88
2021/12/11 07:16:23;;;;;;;;;;;;;;;;;;2546505;23;1366;-87
2021/12/11 07:17:57;;;;;;;;;;;;;;;;;;2554151;23;1368;-86
2021/12/11 07:22:56;;;;;;;;;;;;;;;;;;2553327;23;1416;-87
2021/12/11 07:24:21;;;;;;;;;;;;;;;;;;2549293;23;1221;-87
2021/12/11 07:25:55;;;;;;;;;;;;;;;;;;2550034;23;1305;-86
2021/12/11 07:28:56;;;;;;;;;;;;;;;;;;2541793;23;1480;-86
2021/12/11 07:32:34;;;;;;;;;;;;;;;;;;2533697;23;1043;-88
2021/12/11 07:33:38;;;;;;;;;;;;;;;;;;2545943;23;1391;-89
2021/12/11 07:35:05;;;;;;;;;;;;;;;;;;2559230;23;764;-87
2021/12/11 07:36:33;;;;;;;;;;;;;;;;;;2558187;23;1061;-88
2021/12/11 07:39:43;;;;;;;;;;;;;;;;;;2537955;23;1382;-88
2021/12/11 07:41:16;;;;;;;;;;;;;;;;;;2542213;23;1146;-87
2021/12/11 07:43:12;;;;;;;;;;;;;;;;;;2551504;23;1362;-89
2021/12/11 07:47:57;;;;;;;;;;;;;;;;;;2487428;23;1430;-85
2021/12/11 07:48:59;;;;;;;;;;;;;;;;;;2500072;23;1357;-88
2021/12/11 07:50:02;;;;;;;;;;;;;;;;;;2502963;23;1189;-87
2021/12/11 07:51:11;;;;;;;;;;;;;;;;;;2509232;23;1296;-88
2021/12/11 08:00:41;;;;;;;;;;;;;;;;;;2555102;23;1197;-87
2021/12/11 08:02:09;;;;;;;;;;;;;;;;;;2570594;23;1223;-87
2021/12/11 08:03:31;;;;;;;;;;;;;;;;;;2559383;23;1379;-86
2021/12/11 08:08:01;;;;;;;;;;;;;;;;;;;;;
2021/12/11 08:09:10;;;;;;;;;;;;;;;;;;2558053;23;1339;-87
2021/12/11 08:10:28;;;;;;;;;;;;;;;;;;2547932;23;1434;-87
2021/12/11 08:11:34;;;;;;;;;;;;;;;;;;2562890;23;1226;-87
2021/12/11 08:12:42;;;;;;;;;;;;;;;;;;2558831;23;1308;-87
2021/12/11 08:15:23;;;;;;;;;;;;;;;;;;2556969;23;1308;-87
2021/12/11 08:16:31;;;;;;;;;;;;;;;;;;2549166;23;1432;-87
2021/12/11 08:17:35;;;;;;;;;;;;;;;;;;2560028;23;1304;-85
2021/12/11 08:18:39;;;;;;;;;;;;;;;;;;2557826;23;1371;-89
2021/12/11 08:19:45;;;;;;;;;;;;;;;;;;2559179;23;1216;-87
2021/12/11 08:20:47;;;;;;;;;;;;;;;;;;2558682;23;1398;-85
2021/12/11 08:21:52;;;;;;;;;;;;;;;;;;2546291;23;1305;-84
2021/12/11 08:22:55;;;;;;;;;;;;;;;;;;2546910;23;1282;-88
2021/12/11 08:23:56;;;;;;;;;;;;;;;;;;2559009;23;1390;-86
2021/12/11 08:24:58;;;;;;;;;;;;;;;;;;2571151;23;1874;-86
2021/12/11 08:26:01;;;;;;;;;;;;;;;;;;2558541;23;1228;-86
2021/12/11 08:27:05;;;;;;;;;;;;;;;;;;2558594;23;1351;-87
2021/12/11 08:28:14;;;;;;;;;;;;;;;;;;2558695;23;1248;-86
2021/12/11 08:29:24;;;;;;;;;;;;;;;;;;2547846;23;1349;-86
2021/12/11 08:30:31;;;;;;;;;;;;;;;;;;2546969;23;1387;-87
2021/12/11 08:31:39;;;;;;;;;;;;;;;;;;2558734;23;1329;-87
2021/12/11 08:32:44;;;;;;;;;;;;;;;;;;2560566;23;818;-86
2021/12/11 08:33:50;;;;;;;;;;;;;;;;;;2571299;23;1284;-87
2021/12/11 08:34:56;;;;;;;;;;;;;;;;;;2572026;23;755;-87
2021/12/11 08:36:02;;;;;;;;;;;;;;;;;;2559057;23;1400;-88
2021/12/11 08:37:23;;;;;;;;;;;;;;;;;;2545898;23;1350;-88
2021/12/11 08:38:27;;;;;;;;;;;;;;;;;;2562979;23;1243;-88
2021/12/11 08:39:58;;;;;;;;;;;;;;;;;;2572359;23;934;-88
2021/12/11 08:41:15;;;;;;;;;;;;;;;;;;2571754;23;1195;-88
2021/12/11 08:44:09;;;;;;;;;;;;;;;;;;2568265;23;1340;-88
2021/12/11 08:45:22;;;;;;;;;;;;;;;;;;2571640;23;1938;-88
2021/12/11 08:46:45;;;;;;;;;;;;;;;;;;2559615;23;1405;-89
2021/12/11 08:49:30;;;;;;;;;;;;;;;;;;2515004;23;1503;-89
2021/12/11 08:50:53;;;;;;;;;;;;;;;;;;2486379;23;1306;-89
2021/12/11 08:59:05;;;;;;;;;;;;;;;;;;2559151;23;995;-88
2021/12/11 09:00:37;;;;;;;;;;;;;;;;;;2546653;23;1220;-93
2021/12/11 09:01:42;;;;;;;;;;;;;;;;;;2553296;23;1305;-88
2021/12/11 09:02:48;;;;;;;;;;;;;;;;;;2560052;23;1236;-88
2021/12/11 09:03:58;;;;;;;;;;;;;;;;;;2570553;23;1128;-87
2021/12/11 09:05:27;;;;;;;;;;;;;;;;;;2549042;23;1905;-90
2021/12/11 09:06:46;;;;;;;;;;;;;;;;;;2567979;23;1383;-89
2021/12/11 09:08:00;;;;;;;;;;;;;;;;;;2559396;23;1395;-88
2021/12/11 09:09:06;;;;;;;;;;;;;;;;;;2548962;23;1240;-88
2021/12/11 09:10:15;;;;;;;;;;;;;;;;;;2548439;23;1211;-88
2021/12/11 09:11:24;;;;;;;;;;;;;;;;;;2561179;23;932;-87
2021/12/11 09:12:27;;;;;;;;;;;;;;;;;;2571375;23;1160;-87
2021/12/11 09:13:57;;;;;;;;;;;;;;;;;;;;;
2021/12/11 09:17:20;;;;;;;;;;;;;;;;;;2556470;23;1334;-88
2021/12/11 09:18:44;;;;;;;;;;;;;;;;;;2553576;23;1361;-86
2021/12/11 09:19:52;;;;;;;;;;;;;;;;;;2562571;23;1196;-86
2021/12/11 09:21:18;;;;;;;;;;;;;;;;;;2559333;23;1388;-86
2021/12/11 09:22:51;;;;;;;;;;;;;;;;;;2555210;23;1281;-87
2021/12/11 09:24:27;;;;;;;;;;;;;;;;;;2551520;23;1401;-86
2021/12/11 09:26:12;;;;;;;;;;;;;;;;;;2569530;23;1962;-87
2021/12/11 09:27:56;;;;;;;;;;;;;;;;;;2545051;23;1381;-87
2021/12/11 09:28:59;;;;;;;;;;;;;;;;;;2573191;23;839;-86
2021/12/11 09:32:19;;;;;;;;;;;;;;;;;;2559103;23;1337;-85
2021/12/11 09:33:30;;;;;;;;;;;;;;;;;;2562233;23;1070;-89
2021/12/11 09:34:37;;;;;;;;;;;;;;;;;;2572093;23;779;-86
2021/12/11 09:35:39;;;;;;;;;;;;;;;;;;2571658;23;1248;-86
2021/12/11 09:36:42;;;;;;;;;;;;;;;;;;2558372;23;1277;-85
2021/12/11 09:37:45;;;;;;;;;;;;;;;;;;2547117;23;1326;-87
2021/12/11 09:39:04;;;;;;;;;;;;;;;;;;2546872;23;1310;-87
2021/12/11 09:40:15;;;;;;;;;;;;;;;;;;2550071;23;1343;-86
2021/12/11 09:41:19;;;;;;;;;;;;;;;;;;2547349;23;1284;-85
2021/12/11 09:42:21;;;;;;;;;;;;;;;;;;2547329;23;1216;-87
2021/12/11 09:43:30;;;;;;;;;;;;;;;;;;2545882;23;1270;-86
2021/12/11 09:44:36;;;;;;;;;;;;;;;;;;2548238;23;1228;-86
2021/12/11 09:45:41;;;;;;;;;;;;;;;;;;2559141;23;1904;-87
2021/12/11 09:47:14;;;;;;;;;;;;;;;;;;2570809;23;1338;-86
2021/12/11 09:48:27;;;;;;;;;;;;;;;;;;2563648;23;1051;-88
2021/12/11 09:49:56;;;;;;;;;;;;;;;;;;2559331;23;1278;-90
2021/12/11 09:51:46;;;;;;;;;;;;;;;;;;2578950;23;1415;-88
2021/12/11 09:52:58;;;;;;;;;;;;;;;;;;2533700;23;1289;-88
2021/12/11 09:54:25;;;;;;;;;;;;;;;;;;2557048;23;1177;-86
2021/12/11 09:55:30;;;;;;;;;;;;;;;;;;2571189;23;1358;-88
2021/12/11 09:56:33;;;;;;;;;;;;;;;;;;2572000;23;1185;-85
2021/12/11 09:57:50;;;;;;;;;;;;;;;;;;2571872;23;1159;-85
2021/12/11 09:59:04;;;;;;;;;;;;;;;;;;2575052;23;1239;-86
2021/12/11 10:00:30;;;;;;;;;;;;;;;;;;2570777;23;1254;-87
2021/12/11 10:01:38;;;;;;;;;;;;;;;;;;2574170;23;1208;-83
2021/12/11 10:03:05;;;;;;;;;;;;;;;;;;2569888;23;1342;-85
2021/12/11 10:04:11;;;;;;;;;;;;;;;;;;2572142;23;1199;-85
2021/12/11 10:05:29;;;;;;;;;;;;;;;;;;2583679;23;1304;-87
2021/12/11 10:06:42;;;;;;;;;;;;;;;;;;2570935;23;1250;-86
2021/12/11 10:08:02;;;;;;;;;;;;;;;;;;2573255;23;763;-86
2021/12/11 10:09:19;;;;;;;;;;;;;;;;;;2571086;23;1223;-86
2021/12/11 10:10:59;;;;;;;;;;;;;;;;;;2574176;23;1229;-86
2021/12/11 10:12:21;;;;;;;;;;;;;;;;;;2583344;23;1320;-83
2021/12/11 10:13:43;;;;;;;;;;;;;;;;;;;;;
2021/12/11 10:15:00;;;;;;;;;;;;;;;;;;2567017;23;1291;-85
2021/12/11 10:16:01;;;;;;;;;;;;;;;;;;2571032;23;1258;-84
2021/12/11 10:17:09;;;;;;;;;;;;;;;;;;2571151;23;1175;-84
2021/12/11 10:18:11;;;;;;;;;;;;;;;;;;2570816;23;1258;-86
2021/12/11 10:19:15;;;;;;;;;;;;;;;;;;2558998;23;1281;-85
2021/12/11 10:20:19;;;;;;;;;;;;;;;;;;2571307;23;1246;-84
2021/12/11 10:21:23;;;;;;;;;;;;;;;;;;2570906;23;1339;-84
2021/12/11 10:22:30;;;;;;;;;;;;;;;;;;2571470;23;784;-83
2021/12/11 10:23:36;;;;;;;;;;;;;;;;;;2583754;23;1194;-83
2021/12/11 10:24:39;;;;;;;;;;;;;;;;;;2583268;23;912;-87
2021/12/11 10:25:51;;;;;;;;;;;;;;;;;;2583020;23;1932;-84
2021/12/11 10:26:56;;;;;;;;;;;;;;;;;;2570957;23;1234;-83
2021/12/11 10:28:46;;;;;;;;;;;;;;;;;;2576122;23;1137;-86
2021/12/11 10:30:22;;;;;;;;;;;;;;;;;;2570914;23;1180;-88
2021/12/11 10:31:47;;;;;;;;;;;;;;;;;;2576495;23;1293;-85
2021/12/11 10:39:27;;;;;;;;;;;;;;;;;;2552113;23;1391;-89
2021/12/11 10:42:40;;;;;;;;;;;;;;;;;;2549004;23;1363;-85
2021/12/11 10:45:34;;;;;;;;;;;;;;;;;;2540732;23;1345;-85
2021/12/11 10:46:44;;;;;;;;;;;;;;;;;;2570553;23;1330;-88
2021/12/11 10:47:52;;;;;;;;;;;;;;;;;;2573283;23;1218;-87
2021/12/11 10:55:05;;;;;;;;;;;;;;;;;;2498790;23;1346;-84
2021/12/11 11:01:29;;;;;;;;;;;;;;;;;;2565839;23;1332;-87
2021/12/11 11:06:25;;;;;;;;;;;;;;;;;;2566427;23;1888;-86
2021/12/11 11:07:31;;;;;;;;;;;;;;;;;;2569257;23;1262;-86
2021/12/11 11:08:38;;;;;;;;;;;;;;;;;;2567212;23;1576;-87
2021/12/11 11:09:43;;;;;;;;;;;;;;;;;;2556777;23;1368;-87
2021/12/11 11:10:58;;;;;;;;;;;;;;;;;;2556676;23;1398;-87
2021/12/11 11:12:14;;;;;;;;;;;;;;;;;;2546203;23;1525;-87
2021/12/11 11:13:20;;;;;;;;;;;;;;;;;;2555232;23;1383;-88
2021/12/11 11:14:34;;;;;;;;;;;;;;;;;;2556755;23;1341;-88
2021/12/11 11:15:40;;;;;;;;;;;;;;;;;;2566115;23;1337;-88
2021/12/11 11:17:21;;;;;;;;;;;;;;;;;;2570573;23;1263;-88
2021/12/11 11:20:51;;;;;;;;;;;;;;;;;;2560743;23;1327;-87
2021/12/11 11:28:58;;;;;;;;;;;;;;;;;;;;;
2021/12/11 11:57:39;;;;;;;;;;;;;;;;;;2451436;24;1160;-87
2021/12/11 11:58:59;;;;;;;;;;;;;;;;;;2451460;24;1303;-85
2021/12/11 12:00:01;;;;;;;;;;;;;;;;;;2466047;24;1227;-83
2021/12/11 12:01:18;;;;;;;;;;;;;;;;;;2465137;24;647;-84
2021/12/11 12:04:01;;;;;;;;;;;;;;;;;;2546152;23;1164;-85
2021/12/11 12:05:08;;;;;;;;;;;;;;;;;;2558769;23;1566;-84
2021/12/11 12:06:14;;;;;;;;;;;;;;;;;;2558474;23;1900;-85
2021/12/11 12:07:17;;;;;;;;;;;;;;;;;;2570636;23;1342;-87
2021/12/11 12:08:21;;;;;;;;;;;;;;;;;;2559357;23;1227;-85
2021/12/11 12:09:32;;;;;;;;;;;;;;;;;;2558955;23;1338;-84
2021/12/11 12:10:43;;;;;;;;;;;;;;;;;;2557421;23;1301;-85
2021/12/11 12:11:44;;;;;;;;;;;;;;;;;;2558135;23;1283;-87
2021/12/11 12:13:18;;;;;;;;;;;;;;;;;;2547639;23;1226;-85
2021/12/11 12:14:43;;;;;;;;;;;;;;;;;;2552423;23;1292;-86
2021/12/11 12:16:10;;;;;;;;;;;;;;;;;;2551358;23;1404;-86
2021/12/11 12:17:45;;;;;;;;;;;;;;;;;;2563494;23;1454;-86
2021/12/11 12:35:13;;;;;;;;;;;;;;;;;;2422620;24;1138;-85
2021/12/11 12:38:19;;;;;;;;;;;;;;;;;;2408025;24;1322;-86
2021/12/11 12:45:31;;;;;;;;;;;;;;;;;;2451334;24;1052;-87
2021/12/11 12:48:31;;;;;;;;;;;;;;;;;;2474801;23;1308;-87
2021/12/11 12:49:39;;;;;;;;;;;;;;;;;;2463623;24;1301;-86
2021/12/11 12:50:46;;;;;;;;;;;;;;;;;;2494014;23;1339;-86
2021/12/11 12:51:49;;;;;;;;;;;;;;;;;;2510035;23;1165;-87
2021/12/11 12:54:08;;;;;;;;;;;;;;;;;;2510572;23;1310;-85
2021/12/11 12:55:19;;;;;;;;;;;;;;;;;;2535174;23;1009;-87
2021/12/11 12:56:26;;;;;;;;;;;;;;;;;;2546535;23;795;-86
2021/12/11 13:10:07;;;;;;;;;;;;;;;;;;;;;
2021/12/11 13:55:02;;;;;;;;;;;;;;;;;;2460184;23;1318;-90
2021/12/11 14:00:57;;;;;;;;;;;;;;;;;;2511265;23;583;-89
2021/12/11 14:01:59;;;;;;;;;;;;;;;;;;2528009;23;1310;-86
2021/12/11 14:03:08;;;;;;;;;;;;;;;;;;2542484;23;1232;-88
2021/12/11 14:04:26;;;;;;;;;;;;;;;;;;2559015;23;1381;-89
2021/12/11 14:05:28;;;;;;;;;;;;;;;;;;2558830;23;1322;-85
2021/12/11 14:06:31;;;;;;;;;;;;;;;;;;2559281;23;780;-86
2021/12/11 14:07:40;;;;;;;;;;;;;;;;;;2557975;23;1210;-87
2021/12/11 14:09:06;;;;;;;;;;;;;;;;;;2547638;23;1354;-90
2021/12/11 14:11:53;;;;;;;;;;;;;;;;;;2571171;23;1168;-89
2021/12/11 14:13:04;;;;;;;;;;;;;;;;;;2569052;23;1290;-88
2021/12/11 14:14:09;;;;;;;;;;;;;;;;;;2567577;23;1259;-87
2021/12/11 14:37:57;;;;;;;;;;;;;;;;;;2384463;24;1115;-89
2021/12/11 15:28:04;;;;;;;;;;;;;;;;;;;;;
2021/12/11 15:38:54;;;;;;;;;;;;;;;;;;2474651;24;599;-88
2021/12/11 16:06:47;;;;;;;;;;;;;;;;;;2471303;24;991;-87
2021/12/11 16:10:17;;;;;;;;;;;;;;;;;;2457098;24;1315;-87
2021/12/11 16:13:50;;;;;;;;;;;;;;;;;;2498316;23;1077;-88
2021/12/11 16:19:29;;;;;;;;;;;;;;;;;;2470141;24;1261;-90
2021/12/11 16:20:36;;;;;;;;;;;;;;;;;;2496374;23;1352;-84
2021/12/11 16:21:40;;;;;;;;;;;;;;;;;;2509588;23;1126;-83
2021/12/11 16:22:49;;;;;;;;;;;;;;;;;;2510131;23;831;-84
2021/12/11 16:23:56;;;;;;;;;;;;;;;;;;2510070;23;1303;-85
2021/12/11 16:25:09;;;;;;;;;;;;;;;;;;2499361;23;1328;-85
2021/12/11 16:26:11;;;;;;;;;;;;;;;;;;2523340;23;1537;-88
2021/12/11 16:27:17;;;;;;;;;;;;;;;;;;2532856;23;1939;-87
2021/12/11 16:28:24;;;;;;;;;;;;;;;;;;2562009;23;819;-87
2021/12/11 16:29:26;;;;;;;;;;;;;;;;;;2571152;23;1312;-83
2021/12/11 16:30:49;;;;;;;;;;;;;;;;;;2558656;23;1201;-88
2021/12/11 16:31:59;;;;;;;;;;;;;;;;;;2560960;23;1302;-89